createdAt,value
2022-11-02T00:00:31.716Z,40.30
2022-11-02T00:03:23.294Z,38.70
2022-11-02T00:05:54.920Z,37.10
2022-11-02T00:08:26.570Z,36.10
2022-11-02T00:10:58.184Z,35.60
2022-11-02T00:13:30.029Z,26.50
2022-11-02T00:16:04.186Z,43.10
2022-11-02T00:18:37.966Z,38.70
2022-11-02T00:21:09.832Z,39.30
2022-11-02T00:23:43.015Z,28.10
2022-11-02T00:26:15.657Z,35.90
2022-11-02T00:28:47.582Z,39.80
2022-11-02T00:31:19.233Z,42.00
2022-11-02T00:33:50.901Z,33.20
2022-11-02T00:36:24.785Z,30.00
2022-11-02T00:38:56.760Z,29.90
2022-11-02T00:41:28.851Z,28.30
2022-11-02T00:44:00.584Z,36.70
2022-11-02T00:46:32.234Z,30.80
2022-11-02T00:49:03.950Z,25.70
2022-11-02T00:51:37.409Z,28.20
2022-11-02T00:54:09.102Z,25.60
2022-11-02T00:56:40.860Z,21.00
2022-11-02T00:59:12.546Z,29.40
2022-11-02T01:01:47.708Z,35.60
2022-11-02T01:04:19.806Z,31.40
2022-11-02T01:06:51.532Z,28.60
2022-11-02T01:09:23.157Z,28.60
2022-11-02T01:11:55.664Z,30.40
2022-11-02T01:14:27.445Z,32.60
2022-11-02T01:16:59.102Z,28.10
2022-11-02T01:19:30.859Z,30.80
2022-11-02T01:22:02.658Z,27.30
2022-11-02T01:24:34.354Z,31.70
2022-11-02T01:27:07.713Z,23.20
2022-11-02T01:29:39.361Z,19.70
2022-11-02T01:32:11.076Z,29.60
2022-11-02T01:34:42.936Z,29.70
2022-11-02T01:37:14.589Z,32.90
2022-11-02T01:39:46.320Z,29.70
2022-11-02T01:42:23.018Z,25.90
2022-11-02T01:44:55.060Z,26.70
2022-11-02T01:47:29.535Z,31.70
2022-11-02T01:50:07.201Z,27.90
2022-11-02T01:52:41.937Z,26.60
2022-11-02T01:55:19.370Z,27.60
2022-11-02T01:57:56.944Z,30.10
2022-11-02T02:00:28.758Z,30.60
2022-11-02T02:03:06.643Z,29.70
2022-11-02T02:05:43.773Z,30.00
2022-11-02T02:08:20.442Z,31.00
2022-11-02T02:10:52.654Z,33.60
2022-11-02T02:13:25.398Z,30.60
2022-11-02T02:16:04.705Z,29.50
2022-11-02T02:18:42.632Z,27.50
2022-11-02T02:21:35.634Z,26.80
2022-11-02T02:24:39.329Z,26.90
2022-11-02T02:27:16.693Z,31.80
2022-11-02T02:29:55.953Z,27.10
2022-11-02T02:32:34.285Z,29.70
2022-11-02T02:35:20.301Z,32.00
2022-11-02T02:37:59.144Z,30.00
2022-11-02T02:40:36.265Z,30.20
2022-11-02T02:43:13.620Z,29.00
2022-11-02T02:45:53.137Z,26.70
2022-11-02T02:48:27.185Z,26.60
2022-11-02T02:51:09.431Z,29.00
2022-11-02T02:53:46.155Z,37.00
2022-11-02T02:56:22.649Z,27.30
2022-11-02T02:58:58.812Z,28.60
2022-11-02T03:01:32.310Z,37.70
2022-11-02T03:04:04.160Z,27.40
2022-11-02T03:06:37.834Z,31.90
2022-11-02T03:09:20.477Z,35.90
2022-11-02T03:12:01.790Z,38.90
2022-11-02T03:14:52.981Z,38.50
2022-11-02T03:17:33.648Z,60.50
2022-11-02T03:20:20.280Z,96.40
2022-11-02T03:23:00.875Z,41.40
2022-11-02T03:25:40.814Z,46.40
2022-11-02T03:28:17.529Z,81.80
2022-11-02T03:30:57.725Z,87.80
2022-11-02T03:33:36.778Z,42.40
2022-11-02T03:36:14.095Z,57.40
2022-11-02T03:38:50.832Z,45.90
2022-11-02T03:41:25.142Z,85.20
2022-11-02T03:44:03.829Z,41.90
2022-11-02T03:46:39.840Z,57.60
2022-11-02T03:49:19.311Z,39.70
2022-11-02T03:51:53.144Z,53.60
2022-11-02T03:54:35.638Z,37.00
2022-11-02T03:57:11.439Z,105.20
2022-11-02T03:59:45.166Z,122.90
2022-11-02T04:02:19.689Z,40.90
2022-11-02T04:04:54.711Z,50.20
2022-11-02T04:07:58.379Z,96.90
2022-11-02T04:13:21.262Z,119.10
2022-11-02T04:15:54.128Z,143.30
2022-11-02T04:18:43.461Z,141.20
2022-11-02T04:21:15.269Z,69.40
2022-11-02T04:24:04.670Z,45.50
2022-11-02T04:26:36.337Z,48.20
2022-11-02T04:29:08.108Z,184.60
2022-11-02T04:31:39.953Z,67.00
2022-11-02T04:34:12.247Z,100.50
2022-11-02T04:39:16.460Z,74.20
2022-11-02T04:41:48.258Z,44.80
2022-11-02T04:44:45.841Z,174.10
2022-11-02T04:47:23.446Z,98.50
2022-11-02T04:49:55.457Z,69.80
2022-11-02T04:54:58.715Z,36.90
2022-11-02T04:57:30.748Z,77.20
2022-11-02T05:00:07.270Z,44.90
2022-11-02T05:02:39.161Z,35.80
2022-11-02T05:05:12.586Z,42.80
2022-11-02T05:07:45.036Z,32.00
2022-11-02T05:10:17.575Z,33.60
2022-11-02T05:15:20.671Z,115.40
2022-11-02T05:17:52.669Z,40.70
2022-11-02T05:20:25.063Z,37.50
2022-11-02T05:22:58.218Z,108.50
2022-11-02T05:25:30.409Z,44.20
2022-11-02T05:28:02.969Z,136.90
2022-11-02T05:30:35.180Z,37.20
2022-11-02T05:33:07.506Z,40.50
2022-11-02T05:35:39.922Z,43.80
2022-11-02T05:38:12.129Z,91.00
2022-11-02T05:40:43.809Z,112.30
2022-11-02T05:43:16.633Z,100.70
2022-11-02T05:45:54.236Z,50.40
2022-11-02T05:48:27.141Z,108.70
2022-11-02T05:51:00.375Z,91.40
2022-11-02T05:53:34.286Z,56.90
2022-11-02T05:56:08.091Z,94.10
2022-11-02T05:58:40.451Z,77.00
2022-11-02T06:01:13.535Z,46.70
2022-11-02T06:03:49.139Z,59.00
2022-11-02T06:06:24.808Z,44.00
2022-11-02T06:08:57.241Z,67.30
2022-11-02T06:11:28.896Z,54.90
2022-11-02T06:14:00.611Z,48.10
2022-11-02T06:16:32.544Z,38.50
2022-11-02T06:19:04.648Z,44.30
2022-11-02T06:21:36.332Z,31.10
2022-11-02T06:24:08.918Z,36.30
2022-11-02T06:26:40.609Z,40.40
2022-11-02T06:29:12.260Z,42.60
2022-11-02T06:31:43.955Z,40.70
2022-11-02T06:34:15.625Z,33.30
2022-11-02T06:36:47.309Z,44.30
2022-11-02T06:39:18.928Z,44.20
2022-11-02T06:41:50.762Z,41.90
2022-11-02T06:44:22.443Z,37.40
2022-11-02T06:46:54.249Z,40.80
2022-11-02T06:49:27.598Z,40.60
2022-11-02T06:51:59.358Z,41.00
2022-11-02T06:54:31.029Z,40.60
2022-11-02T06:57:02.758Z,38.50
2022-11-02T06:59:34.356Z,33.10
2022-11-02T07:02:06.125Z,37.30
2022-11-02T07:04:40.382Z,36.80
2022-11-02T07:07:12.199Z,36.40
2022-11-02T07:09:43.967Z,32.70
2022-11-02T07:12:19.222Z,32.20
2022-11-02T07:14:54.744Z,38.20
2022-11-02T07:17:31.874Z,33.30
2022-11-02T07:20:05.259Z,31.80
2022-11-02T07:22:36.928Z,33.90
2022-11-02T07:25:09.611Z,33.70
2022-11-02T07:27:44.117Z,28.90
2022-11-02T07:30:16.017Z,31.30
2022-11-02T07:32:48.412Z,34.30
2022-11-02T07:35:20.217Z,30.30
2022-11-02T07:37:59.839Z,26.40
2022-11-02T07:40:33.550Z,24.30
2022-11-02T07:43:06.108Z,34.10
2022-11-02T07:45:45.491Z,23.50
2022-11-02T07:48:17.302Z,31.50
2022-11-02T07:50:49.144Z,21.70
2022-11-02T07:53:20.959Z,27.90
2022-11-02T07:55:52.861Z,25.80
2022-11-02T07:58:24.628Z,23.40
2022-11-02T08:00:59.907Z,15.30
2022-11-02T08:03:32.492Z,25.50
2022-11-02T08:06:04.872Z,30.30
2022-11-02T08:08:37.244Z,25.30
2022-11-02T08:13:40.988Z,26.40
2022-11-02T08:16:12.696Z,27.90
2022-11-02T08:19:01.437Z,25.90
2022-11-02T08:21:33.205Z,21.00
2022-11-02T08:24:05.303Z,35.00
2022-11-02T08:26:38.743Z,26.20
2022-11-02T08:29:13.094Z,25.80
2022-11-02T08:31:45.006Z,19.20
2022-11-02T08:34:16.917Z,27.30
2022-11-02T08:36:48.983Z,23.70
2022-11-02T08:39:20.811Z,22.40
2022-11-02T08:41:52.544Z,21.70
2022-11-02T08:44:24.371Z,20.70
2022-11-02T08:47:02.176Z,22.40
2022-11-02T08:49:36.224Z,23.20
2022-11-02T08:52:08.274Z,17.60
2022-11-02T08:54:40.371Z,20.90
2022-11-02T08:57:12.373Z,20.30
2022-11-02T08:59:44.266Z,17.90
2022-11-02T09:02:16.221Z,15.10
2022-11-02T09:04:47.984Z,19.50
2022-11-02T09:07:19.740Z,19.70
2022-11-02T09:09:51.538Z,20.20
2022-11-02T09:12:23.313Z,21.20
2022-11-02T09:14:55.273Z,16.20
2022-11-02T09:17:27.039Z,16.50
2022-11-02T09:19:58.756Z,20.80
2022-11-02T09:22:30.523Z,22.60
2022-11-02T09:25:02.352Z,14.30
2022-11-02T09:27:34.353Z,21.70
2022-11-02T09:30:07.325Z,17.00
2022-11-02T09:32:39.679Z,17.50
2022-11-02T09:35:13.111Z,19.50
2022-11-02T09:37:50.925Z,9.70
2022-11-02T09:40:25.896Z,14.00
2022-11-02T09:43:08.286Z,10.80
2022-11-02T09:45:54.995Z,10.60
2022-11-02T09:48:32.507Z,7.90
2022-11-02T09:51:09.581Z,22.90
2022-11-02T09:53:48.225Z,9.00
2022-11-02T09:56:21.244Z,11.50
2022-11-02T09:58:58.313Z,10.00
2022-11-02T10:01:41.044Z,14.50
2022-11-02T10:04:34.282Z,12.90
2022-11-02T10:07:12.087Z,12.40
2022-11-02T10:09:53.998Z,10.40
2022-11-02T10:12:32.796Z,11.10
2022-11-02T10:15:12.115Z,15.30
2022-11-02T10:17:45.299Z,15.70
2022-11-02T10:20:26.046Z,10.50
2022-11-02T10:23:04.442Z,7.40
2022-11-02T10:25:38.677Z,16.50
2022-11-02T10:28:19.278Z,11.80
2022-11-02T10:30:53.763Z,15.90
2022-11-02T10:33:28.750Z,22.00
2022-11-02T10:36:20.179Z,20.30
2022-11-02T10:39:04.431Z,11.60
2022-11-02T10:41:52.325Z,14.80
2022-11-02T10:44:41.832Z,10.90
2022-11-02T10:47:18.791Z,11.60
2022-11-02T10:50:34.309Z,13.80
2022-11-02T10:53:35.375Z,12.60
2022-11-02T10:56:09.630Z,11.80
2022-11-02T10:58:46.684Z,12.70
2022-11-02T11:01:18.511Z,8.70
2022-11-02T11:04:04.278Z,14.80
2022-11-02T11:06:38.323Z,16.60
2022-11-02T11:09:19.169Z,8.60
2022-11-02T11:11:59.886Z,13.90
2022-11-02T11:20:37.256Z,15.30
2022-11-02T11:23:26.769Z,13.30
2022-11-02T11:26:03.665Z,14.20
2022-11-02T11:28:41.099Z,12.80
2022-11-02T11:31:16.701Z,12.30
2022-11-02T11:33:52.978Z,11.40
2022-11-02T11:36:30.760Z,11.50
2022-11-02T11:39:05.041Z,11.90
2022-11-02T11:41:41.604Z,11.30
2022-11-02T11:44:16.341Z,9.70
2022-11-02T11:46:51.460Z,11.40
2022-11-02T11:52:30.921Z,14.40
2022-11-02T11:55:20.754Z,8.10
2022-11-02T11:58:07.940Z,12.30
2022-11-02T12:00:40.267Z,10.80
2022-11-02T12:03:14.216Z,10.80
2022-11-02T12:06:01.476Z,12.60
2022-11-02T12:08:47.250Z,10.70
2022-11-02T12:11:35.200Z,10.60
2022-11-02T12:14:33.313Z,12.80
2022-11-02T12:17:20.599Z,12.40
2022-11-02T12:20:12.857Z,9.50
2022-11-02T12:22:55.202Z,12.90
2022-11-02T12:25:42.447Z,13.50
2022-11-02T12:28:30.126Z,11.00
2022-11-02T12:31:12.698Z,12.50
2022-11-02T12:33:57.004Z,8.30
2022-11-02T12:37:01.702Z,8.40
2022-11-02T12:39:50.139Z,16.20
2022-11-02T12:42:29.794Z,10.40
2022-11-02T12:45:18.352Z,15.20
2022-11-02T12:47:59.316Z,11.60
2022-11-02T12:50:49.069Z,14.90
2022-11-02T12:53:43.238Z,11.80
2022-11-02T12:56:21.075Z,21.30
2022-11-02T12:58:54.306Z,11.40
2022-11-02T13:01:32.188Z,10.60
2022-11-02T13:04:16.447Z,9.50
2022-11-02T13:06:52.409Z,14.80
2022-11-02T13:09:31.708Z,9.30
2022-11-02T13:12:07.273Z,9.50
2022-11-02T13:14:43.829Z,9.90
2022-11-02T13:17:21.336Z,17.50
2022-11-02T13:19:55.959Z,11.20
2022-11-02T13:22:32.141Z,14.00
2022-11-02T13:25:16.090Z,12.00
2022-11-02T13:27:53.526Z,18.40
2022-11-02T13:30:25.285Z,19.10
2022-11-02T13:33:04.104Z,8.00
2022-11-02T13:35:40.974Z,9.50
2022-11-02T13:38:26.018Z,15.80
2022-11-02T13:41:13.250Z,11.90
2022-11-02T13:44:05.328Z,13.80
2022-11-02T13:46:59.083Z,6.20
2022-11-02T13:49:35.751Z,33.70
2022-11-02T13:52:14.029Z,8.50
2022-11-02T13:54:51.917Z,6.40
2022-11-02T13:57:33.573Z,7.70
2022-11-02T14:00:09.582Z,12.70
2022-11-02T14:02:44.794Z,7.80
2022-11-02T14:05:34.134Z,14.00
2022-11-02T14:08:08.914Z,6.60
2022-11-02T14:10:42.650Z,8.90
2022-11-02T14:13:17.717Z,9.40
2022-11-02T14:15:54.827Z,12.20
2022-11-02T14:18:33.494Z,10.60
2022-11-02T14:21:32.440Z,12.80
2022-11-02T14:24:04.574Z,7.40
2022-11-02T14:26:56.834Z,12.00
2022-11-02T14:29:52.688Z,10.10
2022-11-02T14:32:36.298Z,13.00
2022-11-02T14:35:19.740Z,8.50
2022-11-02T14:38:12.766Z,8.90
2022-11-02T14:44:03.988Z,12.80
2022-11-02T14:46:48.903Z,7.20
2022-11-02T14:49:23.941Z,6.30
2022-11-02T14:52:04.542Z,8.10
2022-11-02T14:54:47.601Z,7.30
2022-11-02T14:57:25.861Z,12.30
2022-11-02T15:00:01.097Z,10.90
2022-11-02T15:02:40.316Z,6.90
2022-11-02T15:05:27.585Z,13.60
2022-11-02T15:08:03.546Z,12.00
2022-11-02T15:10:43.421Z,6.80
2022-11-02T15:13:37.536Z,13.20
2022-11-02T15:16:25.085Z,13.70
2022-11-02T15:19:19.747Z,10.80
2022-11-02T15:21:52.098Z,17.30
2022-11-02T15:24:29.537Z,9.60
2022-11-02T15:27:03.457Z,12.30
2022-11-02T15:29:38.705Z,13.80
2022-11-02T15:32:18.223Z,10.10
2022-11-02T15:34:56.076Z,11.60
2022-11-02T15:37:37.337Z,16.30
2022-11-02T15:40:22.653Z,13.30
2022-11-02T15:43:06.221Z,19.90
2022-11-02T15:46:02.083Z,19.20
2022-11-02T15:48:44.758Z,12.60
2022-11-02T15:51:26.017Z,28.60
2022-11-02T15:54:24.728Z,13.20
2022-11-02T15:57:08.017Z,16.50
2022-11-02T16:00:08.281Z,12.50
2022-11-02T16:02:44.938Z,10.60
2022-11-02T16:05:21.705Z,20.60
2022-11-02T16:08:11.366Z,12.40
2022-11-02T16:10:43.495Z,19.10
2022-11-02T16:13:17.946Z,14.10
2022-11-02T16:15:51.032Z,15.80
2022-11-02T16:18:27.962Z,14.40
2022-11-02T16:21:02.578Z,12.10
2022-11-02T16:23:36.630Z,10.90
2022-11-02T16:26:19.819Z,14.50
2022-11-02T16:28:55.074Z,14.10
2022-11-02T16:31:31.153Z,14.40
2022-11-02T16:34:06.451Z,14.30
2022-11-02T16:36:40.188Z,14.50
2022-11-02T16:39:20.149Z,22.20
2022-11-02T16:41:57.201Z,15.20
2022-11-02T16:44:31.533Z,18.70
2022-11-02T16:47:19.010Z,19.80
2022-11-02T16:50:11.707Z,18.10
2022-11-02T16:52:43.521Z,18.50
2022-11-02T16:55:36.343Z,15.70
2022-11-02T16:58:13.619Z,16.20
2022-11-02T17:00:56.621Z,16.50
2022-11-02T17:03:34.124Z,26.00
2022-11-02T17:06:09.265Z,15.80
2022-11-02T17:08:44.260Z,15.90
2022-11-02T17:11:18.555Z,18.90
2022-11-02T17:13:54.897Z,19.50
2022-11-02T17:16:26.848Z,20.90
2022-11-02T17:18:58.621Z,21.20
2022-11-02T17:21:31.486Z,15.60
2022-11-02T17:24:23.353Z,18.90
2022-11-02T17:27:25.103Z,22.60
2022-11-02T17:29:57.726Z,21.10
2022-11-02T17:32:30.005Z,21.80
2022-11-02T17:35:02.703Z,18.80
2022-11-02T17:40:10.962Z,16.20
2022-11-02T17:43:02.357Z,21.70
2022-11-02T17:45:37.481Z,16.90
2022-11-02T17:48:12.469Z,26.40
2022-11-02T17:50:45.847Z,17.10
2022-11-02T17:53:18.758Z,13.00
2022-11-02T17:55:51.388Z,13.70
2022-11-02T18:00:55.514Z,16.00
2022-11-02T18:03:31.264Z,13.30
2022-11-02T18:06:10.372Z,12.30
2022-11-02T18:09:03.446Z,10.40
2022-11-02T18:11:36.670Z,13.40
2022-11-02T18:14:16.840Z,10.60
2022-11-02T18:16:51.013Z,15.60
2022-11-02T18:19:24.214Z,15.60
2022-11-02T18:21:57.268Z,20.90
2022-11-02T18:24:30.413Z,13.50
2022-11-02T18:27:02.676Z,13.30
2022-11-02T18:29:39.992Z,17.00
2022-11-02T18:32:13.108Z,20.60
2022-11-02T18:34:46.065Z,16.00
2022-11-02T18:37:19.826Z,22.50
2022-11-02T18:39:52.642Z,24.50
2022-11-02T18:44:55.409Z,24.00
2022-11-02T18:47:30.287Z,19.80
2022-11-02T18:50:03.393Z,22.40
2022-11-02T18:52:40.366Z,19.10
2022-11-02T18:55:14.239Z,23.80
2022-11-02T18:57:51.078Z,22.20
2022-11-02T19:00:24.569Z,25.00
2022-11-02T19:02:57.684Z,23.00
2022-11-02T19:05:48.781Z,20.40
2022-11-02T19:08:55.246Z,23.60
2022-11-02T19:11:28.392Z,24.10
2022-11-02T19:14:01.078Z,22.60
2022-11-02T19:16:33.955Z,21.70
2022-11-02T19:19:07.132Z,22.30
2022-11-02T19:21:43.285Z,31.50
2022-11-02T19:24:21.100Z,18.80
2022-11-02T19:26:54.978Z,19.90
2022-11-02T19:29:27.817Z,21.30
2022-11-02T19:32:02.087Z,19.70
2022-11-02T19:34:36.938Z,24.30
2022-11-02T19:37:10.222Z,24.90
2022-11-02T19:39:43.706Z,20.70
2022-11-02T19:42:17.257Z,25.70
2022-11-02T19:44:50.868Z,23.90
2022-11-02T19:47:24.691Z,25.20
2022-11-02T19:49:58.563Z,24.90
2022-11-02T19:52:31.262Z,24.20
2022-11-02T19:57:36.334Z,25.60
2022-11-02T20:00:16.147Z,23.20
2022-11-02T20:02:52.401Z,23.40
2022-11-02T20:05:25.855Z,25.70
2022-11-02T20:07:58.569Z,23.40
2022-11-02T20:13:03.348Z,24.10
2022-11-02T20:15:39.584Z,27.80
2022-11-02T20:18:19.472Z,24.20
2022-11-02T20:20:53.108Z,22.30
2022-11-02T20:23:27.200Z,27.10
2022-11-02T20:26:05.380Z,26.80
2022-11-02T20:28:39.959Z,30.60
2022-11-02T20:31:13.983Z,27.10
2022-11-02T20:33:46.541Z,24.50
2022-11-02T20:36:25.218Z,28.90
2022-11-02T20:39:03.366Z,31.60
2022-11-02T20:41:39.361Z,29.40
2022-11-02T20:44:11.639Z,30.20
2022-11-02T20:46:52.771Z,27.90
2022-11-02T20:52:22.514Z,34.20
2022-11-02T20:54:55.893Z,29.20
2022-11-02T20:57:29.365Z,27.10
2022-11-02T21:00:04.303Z,23.70
2022-11-02T21:02:39.347Z,27.60
2022-11-02T21:05:16.037Z,31.90
2022-11-02T21:07:52.422Z,30.60
2022-11-02T21:10:26.112Z,31.40
2022-11-02T21:13:16.622Z,23.10
2022-11-02T21:15:50.361Z,33.60
2022-11-02T21:18:23.846Z,28.60
2022-11-02T21:20:56.302Z,32.80
2022-11-02T21:23:28.406Z,27.20
2022-11-02T21:26:21.864Z,27.90
2022-11-02T21:28:58.239Z,27.60
2022-11-02T21:31:31.172Z,21.90
2022-11-02T21:36:41.373Z,24.60
2022-11-02T21:39:19.996Z,27.30
2022-11-02T21:41:56.887Z,33.40
2022-11-02T21:44:28.952Z,31.70
2022-11-02T21:47:02.024Z,32.30
2022-11-02T21:49:34.362Z,25.60
2022-11-02T21:52:07.377Z,22.30
2022-11-02T21:54:44.624Z,25.50
2022-11-02T21:57:17.266Z,37.00
2022-11-02T22:02:25.830Z,26.00
2022-11-02T22:05:01.503Z,29.40
2022-11-02T22:07:57.159Z,25.20
2022-11-02T22:10:30.166Z,21.60
2022-11-02T22:13:25.861Z,31.00
2022-11-02T22:16:07.608Z,28.90
2022-11-02T22:18:40.609Z,27.80
2022-11-02T22:23:47.142Z,26.30
2022-11-02T22:26:21.819Z,29.10
2022-11-02T22:28:57.730Z,26.00
2022-11-02T22:31:31.540Z,27.80
2022-11-02T22:34:06.434Z,31.10
2022-11-02T22:36:40.716Z,29.60
2022-11-02T22:39:15.369Z,28.40
2022-11-02T22:41:49.511Z,23.90
2022-11-02T22:44:22.385Z,27.30
2022-11-02T22:46:55.105Z,27.60
2022-11-02T22:49:27.336Z,28.50
2022-11-02T22:51:59.557Z,27.10
2022-11-02T22:54:31.763Z,30.40
2022-11-02T22:57:05.451Z,31.90
2022-11-02T22:59:39.334Z,31.00
2022-11-02T23:02:11.939Z,34.60
2022-11-02T23:04:44.898Z,25.40
2022-11-02T23:07:17.233Z,29.00
2022-11-02T23:09:49.098Z,26.40
2022-11-02T23:12:21.202Z,24.10
2022-11-02T23:14:53.090Z,23.30
2022-11-02T23:17:25.752Z,24.90
2022-11-02T23:22:47.018Z,24.70
2022-11-02T23:25:21.389Z,27.30
2022-11-02T23:28:17.091Z,25.20
2022-11-02T23:31:07.331Z,23.80
2022-11-02T23:33:40.890Z,21.80
2022-11-02T23:36:16.377Z,26.70
2022-11-02T23:39:08.240Z,27.70
2022-11-02T23:41:41.658Z,28.10
2022-11-02T23:44:14.193Z,28.50
2022-11-02T23:46:48.649Z,27.10
2022-11-02T23:49:21.101Z,25.50
2022-11-02T23:52:10.812Z,31.10
2022-11-02T23:55:00.297Z,22.90
2022-11-02T23:57:33.199Z,19.90
